sensor_id;sensor_type;location;lat;lon;timestamp;pressure;altitude;pressure_sealevel;temperature;humidity
19751;BME280;4663;49.120;9.730;2022-09-09T00:06:32;97687.56;;;10.55;90.75
19751;BME280;4663;49.120;9.730;2022-09-09T00:09:16;97690.03;;;10.50;90.64
19751;BME280;4663;49.120;9.730;2022-09-09T00:11:46;97688.84;;;10.59;89.71
19751;BME280;4663;49.120;9.730;2022-09-09T00:14:24;97685.06;;;10.54;89.84
19751;BME280;4663;49.120;9.730;2022-09-09T00:16:56;97683.59;;;10.51;89.71
19751;BME280;4663;49.120;9.730;2022-09-09T00:19:41;97683.34;;;10.46;90.02
19751;BME280;4663;49.120;9.730;2022-09-09T00:22:19;97687.97;;;10.52;90.39
19751;BME280;4663;49.120;9.730;2022-09-09T00:24:53;97689.81;;;10.73;89.19
19751;BME280;4663;49.120;9.730;2022-09-09T00:27:31;97685.78;;;10.41;89.72
19751;BME280;4663;49.120;9.730;2022-09-09T00:32:49;97680.47;;;10.47;90.34
19751;BME280;4663;49.120;9.730;2022-09-09T00:35:27;97683.97;;;10.48;90.32
19751;BME280;4663;49.120;9.730;2022-09-09T00:37:56;97682.06;;;10.42;89.54
19751;BME280;4663;49.120;9.730;2022-09-09T00:40:34;97683.34;;;10.46;90.00
19751;BME280;4663;49.120;9.730;2022-09-09T00:51:35;97685.72;;;10.56;89.08
19751;BME280;4663;49.120;9.730;2022-09-09T00:54:22;97692.09;;;10.26;89.28
19751;BME280;4663;49.120;9.730;2022-09-09T01:00:16;97698.06;;;10.21;90.34
19751;BME280;4663;49.120;9.730;2022-09-09T01:03:13;97701.13;;;10.18;91.32
19751;BME280;4663;49.120;9.730;2022-09-09T01:08:01;97691.69;;;10.07;91.36
19751;BME280;4663;49.120;9.730;2022-09-09T01:12:58;97691.13;;;10.12;91.87
19751;BME280;4663;49.120;9.730;2022-09-09T01:15:29;97692.78;;;10.13;90.76
19751;BME280;4663;49.120;9.730;2022-09-09T01:18:09;97702.22;;;10.24;90.25
19751;BME280;4663;49.120;9.730;2022-09-09T01:20:49;97697.72;;;10.31;89.82
19751;BME280;4663;49.120;9.730;2022-09-09T01:23:38;97702.88;;;10.26;90.19
19751;BME280;4663;49.120;9.730;2022-09-09T01:26:30;97701.41;;;10.23;90.90
19751;BME280;4663;49.120;9.730;2022-09-09T01:28:57;97699.41;;;10.32;90.29
19751;BME280;4663;49.120;9.730;2022-09-09T01:31:37;97698.84;;;10.37;90.15
19751;BME280;4663;49.120;9.730;2022-09-09T01:34:12;97695.78;;;10.25;91.16
19751;BME280;4663;49.120;9.730;2022-09-09T01:36:58;97699.03;;;10.13;92.24
19751;BME280;4663;49.120;9.730;2022-09-09T01:39:25;97684.75;;;10.20;91.44
19751;BME280;4663;49.120;9.730;2022-09-09T01:41:52;97692.72;;;10.28;91.86
19751;BME280;4663;49.120;9.730;2022-09-09T01:44:19;97687.97;;;10.30;91.27
19751;BME280;4663;49.120;9.730;2022-09-09T01:46:45;97691.59;;;10.37;91.49
19751;BME280;4663;49.120;9.730;2022-09-09T01:49:11;97695.09;;;10.38;91.22
19751;BME280;4663;49.120;9.730;2022-09-09T01:51:37;97690.59;;;10.45;91.17
19751;BME280;4663;49.120;9.730;2022-09-09T01:54:04;97694.25;;;10.59;90.52
19751;BME280;4663;49.120;9.730;2022-09-09T01:59:28;97687.19;;;10.58;89.58
19751;BME280;4663;49.120;9.730;2022-09-09T02:02:10;97688.84;;;10.59;90.05
19751;BME280;4663;49.120;9.730;2022-09-09T02:05:00;97687.09;;;10.73;89.59
19751;BME280;4663;49.120;9.730;2022-09-09T02:07:39;97694.34;;;10.73;89.15
19751;BME280;4663;49.120;9.730;2022-09-09T02:10:22;97683.88;;;10.63;89.76
19751;BME280;4663;49.120;9.730;2022-09-09T02:12:54;97694.63;;;10.56;89.86
19751;BME280;4663;49.120;9.730;2022-09-09T02:16:05;97693.03;;;10.62;89.25
19751;BME280;4663;49.120;9.730;2022-09-09T02:21:07;97694.78;;;10.70;88.75
19751;BME280;4663;49.120;9.730;2022-09-09T02:23:34;97691.94;;;10.56;89.86
19751;BME280;4663;49.120;9.730;2022-09-09T02:26:00;97698.88;;;10.65;89.91
19751;BME280;4663;49.120;9.730;2022-09-09T02:28:29;97705.38;;;10.71;89.23
19751;BME280;4663;49.120;9.730;2022-09-09T02:30:55;97695.66;;;10.77;88.96
19751;BME280;4663;49.120;9.730;2022-09-09T02:33:25;97693.81;;;10.84;88.30
19751;BME280;4663;49.120;9.730;2022-09-09T02:35:52;97683.22;;;10.83;88.26
19751;BME280;4663;49.120;9.730;2022-09-09T02:38:22;97687.16;;;10.80;89.31
19751;BME280;4663;49.120;9.730;2022-09-09T02:40:51;97684.22;;;10.75;88.80
19751;BME280;4663;49.120;9.730;2022-09-09T02:43:17;97682.53;;;11.02;88.03
19751;BME280;4663;49.120;9.730;2022-09-09T02:51:24;97670.88;;;10.95;88.81
19751;BME280;4663;49.120;9.730;2022-09-09T02:54:13;97668.09;;;10.88;88.69
19751;BME280;4663;49.120;9.730;2022-09-09T02:56:46;97659.72;;;10.76;88.89
19751;BME280;4663;49.120;9.730;2022-09-09T02:59:15;97661.34;;;10.71;88.97
19751;BME280;4663;49.120;9.730;2022-09-09T03:01:41;97671.81;;;10.59;89.26
19751;BME280;4663;49.120;9.730;2022-09-09T03:04:07;97675.88;;;10.70;88.76
19751;BME280;4663;49.120;9.730;2022-09-09T03:06:32;97682.00;;;10.57;88.71
19751;BME280;4663;49.120;9.730;2022-09-09T03:08:58;97684.31;;;10.38;88.95
19751;BME280;4663;49.120;9.730;2022-09-09T03:11:26;97683.41;;;10.31;89.28
19751;BME280;4663;49.120;9.730;2022-09-09T03:13:52;97685.22;;;10.23;90.48
19751;BME280;4663;49.120;9.730;2022-09-09T03:16:18;97676.91;;;10.25;89.67
19751;BME280;4663;49.120;9.730;2022-09-09T03:18:43;97680.56;;;10.39;88.49
19751;BME280;4663;49.120;9.730;2022-09-09T03:21:10;97669.34;;;10.35;88.06
19751;BME280;4663;49.120;9.730;2022-09-09T03:23:36;97672.44;;;10.10;89.14
19751;BME280;4663;49.120;9.730;2022-09-09T03:26:01;97689.16;;;10.06;88.88
19751;BME280;4663;49.120;9.730;2022-09-09T03:28:27;97673.66;;;10.30;88.05
19751;BME280;4663;49.120;9.730;2022-09-09T03:31:03;97686.03;;;10.24;88.70
19751;BME280;4663;49.120;9.730;2022-09-09T03:33:29;97683.53;;;10.22;88.69
19751;BME280;4663;49.120;9.730;2022-09-09T03:35:55;97677.72;;;10.04;88.29
19751;BME280;4663;49.120;9.730;2022-09-09T03:38:24;97675.34;;;9.94;88.75
19751;BME280;4663;49.120;9.730;2022-09-09T03:40:52;97674.78;;;9.83;89.10
19751;BME280;4663;49.120;9.730;2022-09-09T03:43:20;97675.53;;;9.77;89.50
19751;BME280;4663;49.120;9.730;2022-09-09T03:45:47;97676.56;;;9.76;89.96
19751;BME280;4663;49.120;9.730;2022-09-09T03:48:13;97668.13;;;9.79;89.43
19751;BME280;4663;49.120;9.730;2022-09-09T03:50:38;97676.00;;;9.81;89.42
19751;BME280;4663;49.120;9.730;2022-09-09T03:53:04;97672.22;;;9.75;89.95
19751;BME280;4663;49.120;9.730;2022-09-09T03:55:31;97675.03;;;9.67;89.94
19751;BME280;4663;49.120;9.730;2022-09-09T03:57:57;97669.25;;;9.70;89.49
19751;BME280;4663;49.120;9.730;2022-09-09T04:00:23;97666.66;;;9.61;89.90
19751;BME280;4663;49.120;9.730;2022-09-09T04:02:48;97666.56;;;9.70;90.07
19751;BME280;4663;49.120;9.730;2022-09-09T04:05:14;97675.03;;;9.67;89.67
19751;BME280;4663;49.120;9.730;2022-09-09T04:07:40;97669.88;;;9.72;90.17
19751;BME280;4663;49.120;9.730;2022-09-09T04:10:06;97670.16;;;9.77;89.26
19751;BME280;4663;49.120;9.730;2022-09-09T04:12:33;97676.19;;;9.79;89.01
19751;BME280;4663;49.120;9.730;2022-09-09T04:14:59;97688.31;;;9.68;89.71
19751;BME280;4663;49.120;9.730;2022-09-09T04:17:25;97687.38;;;9.61;90.43
19751;BME280;4663;49.120;9.730;2022-09-09T04:19:51;97681.13;;;9.75;89.26
19751;BME280;4663;49.120;9.730;2022-09-09T04:22:16;97686.97;;;9.79;88.88
19751;BME280;4663;49.120;9.730;2022-09-09T04:24:42;97686.44;;;9.84;89.07
19751;BME280;4663;49.120;9.730;2022-09-09T04:27:07;97683.06;;;9.82;88.08
19751;BME280;4663;49.120;9.730;2022-09-09T04:29:32;97684.31;;;9.64;90.18
19751;BME280;4663;49.120;9.730;2022-09-09T04:31:58;97690.63;;;9.56;90.32
19751;BME280;4663;49.120;9.730;2022-09-09T04:34:24;97693.34;;;9.56;89.96
19751;BME280;4663;49.120;9.730;2022-09-09T04:36:50;97698.47;;;9.51;90.64
19751;BME280;4663;49.120;9.730;2022-09-09T04:39:17;97693.34;;;9.56;90.69
19751;BME280;4663;49.120;9.730;2022-09-09T04:41:42;97705.03;;;9.64;90.51
19751;BME280;4663;49.120;9.730;2022-09-09T04:44:08;97699.97;;;9.75;89.74
19751;BME280;4663;49.120;9.730;2022-09-09T04:46:33;97704.19;;;9.78;89.56
19751;BME280;4663;49.120;9.730;2022-09-09T04:48:59;97691.94;;;9.60;90.48
19751;BME280;4663;49.120;9.730;2022-09-09T04:51:25;97703.56;;;9.61;89.61
19751;BME280;4663;49.120;9.730;2022-09-09T04:53:50;97705.03;;;9.64;90.37
19751;BME280;4663;49.120;9.730;2022-09-09T04:56:17;97701.50;;;9.78;90.03
19751;BME280;4663;49.120;9.730;2022-09-09T04:58:43;97700.84;;;9.76;89.89
19751;BME280;4663;49.120;9.730;2022-09-09T05:03:36;97703.91;;;9.73;90.49
19751;BME280;4663;49.120;9.730;2022-09-09T05:06:10;97700.31;;;9.66;90.67
19751;BME280;4663;49.120;9.730;2022-09-09T05:08:37;97710.25;;;9.50;91.32
19751;BME280;4663;49.120;9.730;2022-09-09T05:11:12;97715.91;;;9.55;90.46
19751;BME280;4663;49.120;9.730;2022-09-09T05:13:37;97723.91;;;9.64;90.01
19751;BME280;4663;49.120;9.730;2022-09-09T05:16:03;97716.47;;;9.66;89.95
19751;BME280;4663;49.120;9.730;2022-09-09T05:18:28;97720.25;;;9.71;89.43
19751;BME280;4663;49.120;9.730;2022-09-09T05:20:58;97723.88;;;9.79;89.69
19751;BME280;4663;49.120;9.730;2022-09-09T05:23:24;97733.84;;;9.63;91.32
19751;BME280;4663;49.120;9.730;2022-09-09T05:25:56;97732.25;;;9.69;90.89
19751;BME280;4663;49.120;9.730;2022-09-09T05:28:23;97742.19;;;9.83;91.53
19751;BME280;4663;49.120;9.730;2022-09-09T05:31:03;97734.47;;;9.80;91.86
19751;BME280;4663;49.120;9.730;2022-09-09T05:33:30;97742.13;;;9.31;92.79
19751;BME280;4663;49.120;9.730;2022-09-09T05:36:02;97739.34;;;9.40;92.89
19751;BME280;4663;49.120;9.730;2022-09-09T05:38:28;97744.44;;;9.80;92.49
19751;BME280;4663;49.120;9.730;2022-09-09T05:40:55;97738.38;;;10.30;90.36
19751;BME280;4663;49.120;9.730;2022-09-09T05:43:22;97739.09;;;10.60;89.38
19751;BME280;4663;49.120;9.730;2022-09-09T05:45:48;97738.78;;;10.70;87.99
19751;BME280;4663;49.120;9.730;2022-09-09T05:48:16;97738.25;;;10.82;86.68
19751;BME280;4663;49.120;9.730;2022-09-09T05:50:42;97740.13;;;10.81;86.97
19751;BME280;4663;49.120;9.730;2022-09-09T05:53:09;97743.28;;;10.85;87.26
19751;BME280;4663;49.120;9.730;2022-09-09T05:55:35;97747.63;;;10.86;86.84
19751;BME280;4663;49.120;9.730;2022-09-09T05:58:00;97753.31;;;10.69;87.72
19751;BME280;4663;49.120;9.730;2022-09-09T06:00:26;97753.75;;;10.73;88.14
19751;BME280;4663;49.120;9.730;2022-09-09T06:02:52;97750.31;;;10.57;88.65
19751;BME280;4663;49.120;9.730;2022-09-09T06:05:18;97757.75;;;10.55;89.52
19751;BME280;4663;49.120;9.730;2022-09-09T06:07:44;97750.03;;;10.52;89.47
19751;BME280;4663;49.120;9.730;2022-09-09T06:10:10;97754.84;;;10.78;90.48
19751;BME280;4663;49.120;9.730;2022-09-09T06:12:35;97745.84;;;11.15;87.99
19751;BME280;4663;49.120;9.730;2022-09-09T06:15:01;97746.16;;;11.34;87.01
19751;BME280;4663;49.120;9.730;2022-09-09T06:17:27;97734.75;;;11.74;86.48
19751;BME280;4663;49.120;9.730;2022-09-09T06:19:52;97736.31;;;11.97;85.64
19751;BME280;4663;49.120;9.730;2022-09-09T06:22:18;97742.47;;;12.26;85.06
19751;BME280;4663;49.120;9.730;2022-09-09T06:24:44;97741.50;;;12.74;83.33
19751;BME280;4663;49.120;9.730;2022-09-09T06:27:10;97740.28;;;13.04;83.19
19751;BME280;4663;49.120;9.730;2022-09-09T06:29:35;97734.84;;;13.38;81.83
19751;BME280;4663;49.120;9.730;2022-09-09T06:32:02;97735.75;;;13.84;80.20
19751;BME280;4663;49.120;9.730;2022-09-09T06:34:28;97730.03;;;14.06;79.11
19751;BME280;4663;49.120;9.730;2022-09-09T06:36:53;97737.53;;;14.10;77.67
19751;BME280;4663;49.120;9.730;2022-09-09T06:39:19;97742.63;;;13.93;77.08
19751;BME280;4663;49.120;9.730;2022-09-09T06:41:44;97744.28;;;14.01;76.19
19751;BME280;4663;49.120;9.730;2022-09-09T06:44:10;97737.78;;;14.41;76.61
19751;BME280;4663;49.120;9.730;2022-09-09T06:46:39;97738.75;;;14.86;74.87
19751;BME280;4663;49.120;9.730;2022-09-09T06:49:04;97724.22;;;15.69;72.27
19751;BME280;4663;49.120;9.730;2022-09-09T06:51:34;97726.03;;;16.24;70.56
19751;BME280;4663;49.120;9.730;2022-09-09T06:54:01;97728.50;;;16.87;70.14
19751;BME280;4663;49.120;9.730;2022-09-09T06:56:31;97734.34;;;17.15;69.40
19751;BME280;4663;49.120;9.730;2022-09-09T06:58:58;97735.03;;;17.58;69.60
19751;BME280;4663;49.120;9.730;2022-09-09T07:01:27;97743.19;;;18.23;69.96
19751;BME280;4663;49.120;9.730;2022-09-09T07:03:55;97741.78;;;18.96;68.15
19751;BME280;4663;49.120;9.730;2022-09-09T07:08:54;97739.88;;;17.80;66.88
19751;BME280;4663;49.120;9.730;2022-09-09T07:11:21;97725.03;;;17.88;64.90
19751;BME280;4663;49.120;9.730;2022-09-09T07:13:47;97742.13;;;17.71;67.25
19751;BME280;4663;49.120;9.730;2022-09-09T07:16:16;97724.94;;;17.58;64.61
19751;BME280;4663;49.120;9.730;2022-09-09T07:18:43;97740.47;;;17.58;66.40
19751;BME280;4663;49.120;9.730;2022-09-09T07:21:13;97747.34;;;19.01;66.60
19751;BME280;4663;49.120;9.730;2022-09-09T07:23:39;97729.47;;;19.89;62.13
19751;BME280;4663;49.120;9.730;2022-09-09T07:26:12;97728.59;;;20.61;61.45
19751;BME280;4663;49.120;9.730;2022-09-09T07:28:38;97723.75;;;20.13;60.11
19751;BME280;4663;49.120;9.730;2022-09-09T07:31:06;97712.47;;;19.87;60.31
19751;BME280;4663;49.120;9.730;2022-09-09T07:33:33;97717.53;;;19.96;59.33
19751;BME280;4663;49.120;9.730;2022-09-09T07:36:08;97731.03;;;19.85;60.94
19751;BME280;4663;49.120;9.730;2022-09-09T07:38:41;97711.72;;;19.53;59.84
19751;BME280;4663;49.120;9.730;2022-09-09T07:41:11;97732.66;;;20.53;60.31
19751;BME280;4663;49.120;9.730;2022-09-09T07:43:45;97717.66;;;20.61;57.72
19751;BME280;4663;49.120;9.730;2022-09-09T07:46:12;97723.94;;;20.34;58.31
19751;BME280;4663;49.120;9.730;2022-09-09T07:48:43;97736.06;;;19.15;59.70
19751;BME280;4663;49.120;9.730;2022-09-09T07:51:12;97727.16;;;19.59;60.32
19751;BME280;4663;49.120;9.730;2022-09-09T07:53:42;97737.50;;;19.96;59.90
19751;BME280;4663;49.120;9.730;2022-09-09T07:56:13;97749.97;;;19.47;60.50
19751;BME280;4663;49.120;9.730;2022-09-09T07:58:40;97743.00;;;19.40;59.71
19751;BME280;4663;49.120;9.730;2022-09-09T08:03:38;97743.84;;;19.23;61.04
19751;BME280;4663;49.120;9.730;2022-09-09T08:06:06;97748.59;;;19.28;61.21
19751;BME280;4663;49.120;9.730;2022-09-09T08:08:33;97757.28;;;19.42;61.09
19751;BME280;4663;49.120;9.730;2022-09-09T08:11:08;97746.28;;;19.76;60.46
19751;BME280;4663;49.120;9.730;2022-09-09T08:13:38;97742.16;;;20.46;58.68
19751;BME280;4663;49.120;9.730;2022-09-09T08:16:05;97750.34;;;20.68;59.29
19751;BME280;4663;49.120;9.730;2022-09-09T08:18:31;97733.50;;;20.82;57.56
19751;BME280;4663;49.120;9.730;2022-09-09T08:20:57;97737.69;;;20.95;57.16
19751;BME280;4663;49.120;9.730;2022-09-09T08:23:22;97740.88;;;21.52;57.44
19751;BME280;4663;49.120;9.730;2022-09-09T08:25:47;97744.44;;;21.14;58.12
19751;BME280;4663;49.120;9.730;2022-09-09T08:28:14;97749.91;;;21.47;57.96
19751;BME280;4663;49.120;9.730;2022-09-09T08:30:39;97742.31;;;22.24;56.28
19751;BME280;4663;49.120;9.730;2022-09-09T08:33:04;97752.25;;;22.40;56.22
19751;BME280;4663;49.120;9.730;2022-09-09T08:35:30;97749.59;;;22.66;55.76
19751;BME280;4663;49.120;9.730;2022-09-09T08:37:57;97754.41;;;22.23;55.72
19751;BME280;4663;49.120;9.730;2022-09-09T08:40:29;97754.72;;;22.37;55.47
19751;BME280;4663;49.120;9.730;2022-09-09T08:43:00;97766.34;;;21.09;57.39
19751;BME280;4663;49.120;9.730;2022-09-09T08:45:41;97764.34;;;22.39;56.00
19751;BME280;4663;49.120;9.730;2022-09-09T08:50:56;97739.72;;;21.96;55.67
19751;BME280;4663;49.120;9.730;2022-09-09T08:53:28;97746.81;;;22.56;55.62
19751;BME280;4663;49.120;9.730;2022-09-09T08:56:07;97748.22;;;23.10;54.87
19751;BME280;4663;49.120;9.730;2022-09-09T08:58:35;97733.53;;;22.27;54.59
19751;BME280;4663;49.120;9.730;2022-09-09T09:11:34;97735.00;;;24.25;51.99
19751;BME280;4663;49.120;9.730;2022-09-09T09:14:09;97735.34;;;24.08;52.06
19751;BME280;4663;49.120;9.730;2022-09-09T09:16:52;97747.63;;;25.17;51.77
19751;BME280;4663;49.120;9.730;2022-09-09T09:19:18;97729.84;;;25.28;50.42
19751;BME280;4663;49.120;9.730;2022-09-09T09:21:49;97734.13;;;24.81;51.33
19751;BME280;4663;49.120;9.730;2022-09-09T09:26:48;97721.44;;;25.39;50.62
19751;BME280;4663;49.120;9.730;2022-09-09T09:29:19;97729.19;;;24.72;51.50
19751;BME280;4663;49.120;9.730;2022-09-09T09:31:56;97715.13;;;25.09;49.79
19751;BME280;4663;49.120;9.730;2022-09-09T09:34:27;97700.25;;;24.70;50.06
19751;BME280;4663;49.120;9.730;2022-09-09T09:36:56;97705.63;;;24.50;51.00
19751;BME280;4663;49.120;9.730;2022-09-09T09:41:48;97707.31;;;25.46;49.90
19751;BME280;4663;49.120;9.730;2022-09-09T09:44:27;97697.88;;;25.22;48.59
19751;BME280;4663;49.120;9.730;2022-09-09T09:47:10;97691.66;;;24.76;49.07
19751;BME280;4663;49.120;9.730;2022-09-09T09:49:37;97685.34;;;24.31;48.99
19751;BME280;4663;49.120;9.730;2022-09-09T09:52:04;97684.47;;;23.90;49.88
19751;BME280;4663;49.120;9.730;2022-09-09T09:54:33;97693.91;;;24.69;49.67
19751;BME280;4663;49.120;9.730;2022-09-09T09:57:09;97696.19;;;25.26;49.35
19751;BME280;4663;49.120;9.730;2022-09-09T09:59:36;97695.31;;;25.01;48.92
19751;BME280;4663;49.120;9.730;2022-09-09T10:02:21;97686.59;;;25.48;47.89
19751;BME280;4663;49.120;9.730;2022-09-09T10:07:28;97681.22;;;24.68;48.81
19751;BME280;4663;49.120;9.730;2022-09-09T10:09:55;97684.44;;;24.81;49.21
19751;BME280;4663;49.120;9.730;2022-09-09T10:22:34;97657.88;;;24.15;48.94
19751;BME280;4663;49.120;9.730;2022-09-09T10:28:12;97663.03;;;21.79;51.10
19751;BME280;4663;49.120;9.730;2022-09-09T10:36:21;97716.50;;;20.85;59.11
19751;BME280;4663;49.120;9.730;2022-09-09T10:39:06;97721.22;;;21.76;58.94
19751;BME280;4663;49.120;9.730;2022-09-09T10:44:40;97713.00;;;23.28;56.60
19751;BME280;4663;49.120;9.730;2022-09-09T10:55:24;97690.16;;;23.28;54.58
19751;BME280;4663;49.120;9.730;2022-09-09T10:57:58;97687.16;;;22.67;53.85
19751;BME280;4663;49.120;9.730;2022-09-09T11:00:40;97694.03;;;22.54;55.47
19751;BME280;4663;49.120;9.730;2022-09-09T11:03:15;97676.63;;;21.53;53.89
19751;BME280;4663;49.120;9.730;2022-09-09T11:05:51;97692.53;;;20.70;56.80
19751;BME280;4663;49.120;9.730;2022-09-09T11:08:20;97700.09;;;19.85;57.65
19751;BME280;4663;49.120;9.730;2022-09-09T11:14:31;97701.72;;;20.58;56.36
19751;BME280;4663;49.120;9.730;2022-09-09T11:16:32;97699.16;;;19.96;56.82
19751;BME280;4663;49.120;9.730;2022-09-09T11:22:01;97714.44;;;19.70;58.38
19751;BME280;4663;49.120;9.730;2022-09-09T11:24:40;97711.00;;;19.23;59.24
19751;BME280;4663;49.120;9.730;2022-09-09T11:40:32;97697.09;;;19.24;60.87
19751;BME280;4663;49.120;9.730;2022-09-09T11:43:23;97691.16;;;19.28;60.21
19751;BME280;4663;49.120;9.730;2022-09-09T11:45:56;97676.22;;;19.18;57.33
19751;BME280;4663;49.120;9.730;2022-09-09T11:51:36;97689.88;;;19.35;58.49
19751;BME280;4663;49.120;9.730;2022-09-09T11:54:31;97687.69;;;19.77;57.73
19751;BME280;4663;49.120;9.730;2022-09-09T11:56:57;97684.00;;;19.44;56.93
19751;BME280;4663;49.120;9.730;2022-09-09T11:59:28;97683.53;;;18.95;57.33
19751;BME280;4663;49.120;9.730;2022-09-09T12:02:02;97696.28;;;19.07;57.93
19751;BME280;4663;49.120;9.730;2022-09-09T12:04:31;97690.97;;;19.17;57.61
19751;BME280;4663;49.120;9.730;2022-09-09T12:07:32;97714.03;;;19.04;59.28
19751;BME280;4663;49.120;9.730;2022-09-09T12:12:37;97715.03;;;18.98;61.09
19751;BME280;4663;49.120;9.730;2022-09-09T12:17:43;97725.75;;;18.53;63.02
19751;BME280;4663;49.120;9.730;2022-09-09T12:20:16;97752.53;;;18.39;66.53
19751;BME280;4663;49.120;9.730;2022-09-09T12:28:47;97749.25;;;17.72;69.86
19751;BME280;4663;49.120;9.730;2022-09-09T12:32:00;97745.59;;;17.54;71.58
19751;BME280;4663;49.120;9.730;2022-09-09T12:37:04;97757.50;;;16.93;76.04
19751;BME280;4663;49.120;9.730;2022-09-09T12:39:38;97758.03;;;17.14;73.77
19751;BME280;4663;49.120;9.730;2022-09-09T12:42:16;97751.78;;;16.83;74.35
19751;BME280;4663;49.120;9.730;2022-09-09T12:44:57;97754.28;;;16.73;74.09
19751;BME280;4663;49.120;9.730;2022-09-09T12:49:54;97742.13;;;16.45;76.33
19751;BME280;4663;49.120;9.730;2022-09-09T12:52:29;97757.56;;;16.63;79.32
19751;BME280;4663;49.120;9.730;2022-09-09T12:54:58;97725.38;;;16.72;75.19
19751;BME280;4663;49.120;9.730;2022-09-09T12:57:26;97726.00;;;16.98;75.07
19751;BME280;4663;49.120;9.730;2022-09-09T13:00:04;97737.53;;;17.12;75.85
19751;BME280;4663;49.120;9.730;2022-09-09T13:02:30;97735.66;;;17.12;74.30
19751;BME280;4663;49.120;9.730;2022-09-09T13:05:08;97734.75;;;16.88;74.46
19751;BME280;4663;49.120;9.730;2022-09-09T13:07:38;97731.84;;;17.13;74.01
19751;BME280;4663;49.120;9.730;2022-09-09T13:10:04;97730.78;;;17.50;73.89
19751;BME280;4663;49.120;9.730;2022-09-09T13:12:30;97727.69;;;17.58;73.72
19751;BME280;4663;49.120;9.730;2022-09-09T13:14:56;97723.16;;;17.52;71.44
19751;BME280;4663;49.120;9.730;2022-09-09T13:17:24;97723.16;;;17.52;73.35
19751;BME280;4663;49.120;9.730;2022-09-09T13:19:54;97717.03;;;17.45;71.72
19751;BME280;4663;49.120;9.730;2022-09-09T13:24:46;97705.25;;;17.68;70.95
19751;BME280;4663;49.120;9.730;2022-09-09T13:27:28;97706.31;;;17.55;69.42
19751;BME280;4663;49.120;9.730;2022-09-09T13:29:55;97717.94;;;17.63;71.80
19751;BME280;4663;49.120;9.730;2022-09-09T13:32:22;97707.25;;;17.61;70.34
19751;BME280;4663;49.120;9.730;2022-09-09T13:34:56;97726.25;;;17.08;77.16
19751;BME280;4663;49.120;9.730;2022-09-09T13:37:36;97702.53;;;17.08;75.90
19751;BME280;4663;49.120;9.730;2022-09-09T13:40:04;97707.88;;;17.51;76.50
19751;BME280;4663;49.120;9.730;2022-09-09T13:42:32;97665.31;;;17.02;67.36
19751;BME280;4663;49.120;9.730;2022-09-09T13:45:03;97689.47;;;17.58;73.34
19751;BME280;4663;49.120;9.730;2022-09-09T13:47:34;97696.91;;;17.75;72.73
19751;BME280;4663;49.120;9.730;2022-09-09T13:50:23;97692.72;;;17.84;74.98
19751;BME280;4663;49.120;9.730;2022-09-09T13:52:50;97675.91;;;17.76;72.55
19751;BME280;4663;49.120;9.730;2022-09-09T13:55:16;97656.13;;;18.09;66.95
19751;BME280;4663;49.120;9.730;2022-09-09T13:57:58;97676.69;;;18.00;71.57
19751;BME280;4663;49.120;9.730;2022-09-09T14:00:26;97662.22;;;18.00;68.37
19751;BME280;4663;49.120;9.730;2022-09-09T14:02:52;97637.78;;;18.22;63.35
19751;BME280;4663;49.120;9.730;2022-09-09T14:05:20;97663.13;;;18.34;63.61
19751;BME280;4663;49.120;9.730;2022-09-09T14:07:47;97656.41;;;18.25;62.57
19751;BME280;4663;49.120;9.730;2022-09-09T14:10:14;97645.56;;;18.30;61.80
19751;BME280;4663;49.120;9.730;2022-09-09T14:12:39;97644.50;;;17.61;62.44
19751;BME280;4663;49.120;9.730;2022-09-09T14:15:07;97656.66;;;18.23;62.93
19751;BME280;4663;49.120;9.730;2022-09-09T14:17:34;97656.47;;;18.30;63.07
19751;BME280;4663;49.120;9.730;2022-09-09T14:20:04;97650.50;;;18.16;62.27
19751;BME280;4663;49.120;9.730;2022-09-09T14:22:37;97648.69;;;18.22;61.93
19751;BME280;4663;49.120;9.730;2022-09-09T14:25:04;97655.19;;;18.50;62.15
19751;BME280;4663;49.120;9.730;2022-09-09T14:27:30;97655.59;;;18.42;62.70
19751;BME280;4663;49.120;9.730;2022-09-09T14:29:56;97658.63;;;18.28;65.55
19751;BME280;4663;49.120;9.730;2022-09-09T14:32:22;97627.06;;;17.62;63.32
19751;BME280;4663;49.120;9.730;2022-09-09T14:34:48;97655.13;;;17.75;69.29
19751;BME280;4663;49.120;9.730;2022-09-09T14:37:17;97658.47;;;17.77;69.03
19751;BME280;4663;49.120;9.730;2022-09-09T14:39:43;97659.97;;;17.84;69.59
19751;BME280;4663;49.120;9.730;2022-09-09T14:42:12;97644.09;;;17.81;64.55
19751;BME280;4663;49.120;9.730;2022-09-09T14:44:38;97653.63;;;17.67;66.11
19751;BME280;4663;49.120;9.730;2022-09-09T14:47:07;97639.41;;;17.65;64.10
19751;BME280;4663;49.120;9.730;2022-09-09T14:49:37;97640.78;;;17.79;63.27
19751;BME280;4663;49.120;9.730;2022-09-09T14:52:04;97644.97;;;17.70;65.83
19751;BME280;4663;49.120;9.730;2022-09-09T14:54:30;97633.81;;;17.71;63.59
19751;BME280;4663;49.120;9.730;2022-09-09T14:56:55;97652.41;;;17.87;66.87
19751;BME280;4663;49.120;9.730;2022-09-09T14:59:22;97637.81;;;17.93;63.64
19751;BME280;4663;49.120;9.730;2022-09-09T15:01:47;97637.53;;;17.94;62.79
19751;BME280;4663;49.120;9.730;2022-09-09T15:04:13;97653.09;;;17.82;67.85
19751;BME280;4663;49.120;9.730;2022-09-09T15:06:42;97630.66;;;17.51;63.03
19751;BME280;4663;49.120;9.730;2022-09-09T15:09:09;97629.38;;;17.82;62.30
19751;BME280;4663;49.120;9.730;2022-09-09T15:11:37;97650.81;;;17.62;68.13
19751;BME280;4663;49.120;9.730;2022-09-09T15:14:03;97652.38;;;17.45;70.21
19751;BME280;4663;49.120;9.730;2022-09-09T15:16:29;97646.72;;;17.35;68.63
19751;BME280;4663;49.120;9.730;2022-09-09T15:18:57;97638.03;;;17.50;66.18
19751;BME280;4663;49.120;9.730;2022-09-09T15:21:26;97652.84;;;17.54;68.61
19751;BME280;4663;49.120;9.730;2022-09-09T15:23:52;97647.41;;;17.42;65.56
19751;BME280;4663;49.120;9.730;2022-09-09T15:26:18;97653.91;;;17.53;66.96
19751;BME280;4663;49.120;9.730;2022-09-09T15:28:45;97664.84;;;17.53;67.16
19751;BME280;4663;49.120;9.730;2022-09-09T15:33:53;97654.31;;;17.74;67.58
19751;BME280;4663;49.120;9.730;2022-09-09T15:36:24;97659.75;;;17.86;70.54
19751;BME280;4663;49.120;9.730;2022-09-09T15:38:51;97642.94;;;17.77;67.52
19751;BME280;4663;49.120;9.730;2022-09-09T15:41:18;97641.88;;;17.25;68.79
19751;BME280;4663;49.120;9.730;2022-09-09T15:43:51;97646.13;;;16.97;72.94
19751;BME280;4663;49.120;9.730;2022-09-09T15:48:43;97640.78;;;16.78;72.87